Etusivu
METAR-TAF:

METAR-TAF

Lentoasemat :

Golden, Brittiläinen Kolumbia, Kanada

Leveyspiiri: 51-18N, Pituuspiiri: 116-59W, korkeus merenpinnasta: 785 m

Tämänhetkinen sää

Tämä raportti tehtiin 12 tuntia ja 14 minuuttia sitten, kello 00.00 UTC
tyyntä
Lämpötila -3°C
Kosteus 93%
Ilmanpaine 1019 hPa
Näkyvyys: 32.2 km
Muutamia pilviä 1500 ft:n korkeudessa
Hajanaisia pilviä 6700 ft:n korkeudessa
Hajonneita pilviä 12000 ft:n korkeudessa

METAR: CYGE 130000Z 00000KT 20SM FEW015 SCT067 BKN120 M03/M04 A3010 RMK SC1AC3AC4 SC TR LAST STFD OBS/NEXT 131400Z SLP234

Aika: 05:14 (12:14 UTC)


TAF: puuttuu

Säähavainnot ja -ennusteet yli 4000 lentoasemalta (METAR- ja TAF-raportit).

Käytössä olevat sääasemat on merkitty karttaan keltaisilla ja punaisilla pisteillä.

Aseta hiiri pisteen päälle nähdäksesi sääaseman nimen.

Klikkaa sitten nähdäksesi säähavainnot ja -ennusteet.

Kartan vaihtaminen: klikkaa mustalla rastilla varustettuja vihreitä pisteitä, niin voit zoomata sisään; viivalla varustettua vihreää pistettä, niin voit zoomata ulos tai vihreitä nuolia, niin pääset viereisille kartoille.


METAR-TAF: